Time;durP1;ratioP1;P1;durP2;ratioP2;P2;SDS_P1;SDS_P2;PMS_P1;PMS_P2;Temp;Humidity;BMP_temperature;BMP_pressure;BME280_temperature;BME280_humidity;BME280_pressure;Samples;Min_cycle;Max_cycle;Signal;HPM_P1;HPM_P2
2022/01/22 00:03:31;;;;;;;7.33;5.97;;;;;;;5.21;65.30;99003.44;8451295;28;20229;-68
2022/01/22 00:07:36;;;;;;;6.43;5.77;;;;;;;5.20;65.64;98999.16;8448040;28;20234;-68
2022/01/22 00:11:49;;;;;;;6.87;5.83;;;;;;;5.36;65.04;99002.47;8448201;28;20415;-68
2022/01/22 00:15:53;;;;;;;5.57;4.87;;;;;;;5.05;65.74;99002.69;8448001;28;20498;-68
2022/01/22 00:19:55;;;;;;;6.00;5.00;;;;;;;5.17;65.04;98999.19;8447599;28;20230;-68
2022/01/22 00:24:02;;;;;;;5.30;4.80;;;;;;;5.15;66.06;98993.19;8447231;28;20237;-67
2022/01/22 00:28:05;;;;;;;5.13;4.50;;;;;;;5.35;65.18;98993.06;8447410;28;20230;-67
2022/01/22 00:32:08;;;;;;;4.40;4.00;;;;;;;5.02;65.58;98993.25;8446911;28;20233;-67
2022/01/22 00:36:11;;;;;;;4.40;4.00;;;;;;;5.31;64.74;98992.22;8447386;28;20264;-67
2022/01/22 00:40:16;;;;;;;4.73;4.17;;;;;;;5.14;65.38;98994.03;8447343;28;20230;-67
2022/01/22 00:44:19;;;;;;;4.40;4.00;;;;;;;5.20;65.12;98986.31;8447304;28;20248;-68
2022/01/22 00:48:22;;;;;;;5.03;4.20;;;;;;;5.08;65.38;98985.53;8447041;28;20340;-68
2022/01/22 00:52:25;;;;;;;4.80;4.40;;;;;;;5.25;65.21;98988.00;8437296;28;20234;-68
2022/01/22 00:56:30;;;;;;;4.60;4.20;;;;;;;5.27;64.45;98986.28;8447081;28;20225;-68
2022/01/22 01:00:33;;;;;;;4.37;3.97;;;;;;;5.44;64.05;98975.84;8446444;28;20222;-67
2022/01/22 01:04:37;;;;;;;4.97;4.30;;;;;;;5.04;65.21;98972.72;8476127;28;20249;-68
2022/01/22 01:08:42;;;;;;;5.20;4.13;;;;;;;5.37;64.53;98975.91;8480522;28;20432;-68
2022/01/22 01:12:48;;;;;;;4.73;4.20;;;;;;;5.28;65.54;98982.81;8480531;28;20274;-68
2022/01/22 01:17:09;;;;;;;4.90;4.50;;;;;;;5.06;65.71;98987.25;8480244;28;20245;-68
2022/01/22 01:34:16;;;;;;;5.37;4.87;;;;;;;4.93;66.55;98980.50;8479832;28;20229;-69
2022/01/22 01:38:22;;;;;;;6.07;5.30;;;;;;;5.11;65.81;98979.53;8479877;28;20225;-69
2022/01/22 01:42:33;;;;;;;6.10;5.50;;;;;;;4.97;66.14;98984.75;8480027;28;20225;-67
2022/01/22 01:46:43;;;;;;;5.90;5.40;;;;;;;5.06;66.52;98978.69;8481971;28;20197;-67
2022/01/22 01:50:46;;;;;;;5.97;5.40;;;;;;;5.23;65.76;98969.16;8482255;28;20417;-67
2022/01/22 01:55:01;;;;;;;6.87;6.03;;;;;;;4.89;66.54;98965.94;8481824;28;20226;-68
2022/01/22 01:59:04;;;;;;;6.27;5.67;;;;;;;5.17;66.28;98970.94;8470955;28;20240;-67
2022/01/22 02:03:11;;;;;;;7.03;6.30;;;;;;;5.17;65.94;98976.06;8484349;28;20229;-69
2022/01/22 02:07:14;;;;;;;6.80;5.63;;;;;;;5.22;65.58;98985.44;8486193;27;20237;-68
2022/01/22 02:11:19;;;;;;;6.27;5.70;;;;;;;5.35;66.06;98981.09;8485984;28;20229;-69
2022/01/22 02:24:09;;;;;;;7.20;6.07;;;;;;;5.42;65.80;98981.88;8485570;28;20233;-68
2022/01/22 02:28:13;;;;;;;6.63;6.03;;;;;;;5.46;66.02;98965.56;8486056;28;20226;-68
2022/01/22 02:32:49;;;;;;;6.77;6.17;;;;;;;5.27;66.53;98975.13;8485429;28;20244;-68
2022/01/22 02:37:00;;;;;;;6.70;6.10;;;;;;;5.39;66.05;98969.06;8484567;27;20428;-68
2022/01/22 02:41:05;;;;;;;6.70;5.90;;;;;;;5.61;65.60;98962.03;8484618;28;20265;-68
2022/01/22 02:45:11;;;;;;;8.83;6.50;;;;;;;5.59;65.52;98972.31;8484921;27;20234;-68
2022/01/22 02:49:14;;;;;;;7.03;6.30;;;;;;;5.40;65.99;98968.19;8484460;28;20234;-68
2022/01/22 02:53:17;;;;;;;8.07;7.13;;;;;;;5.68;65.57;98961.13;8484266;27;20241;-69
2022/01/22 02:57:21;;;;;;;7.50;6.77;;;;;;;5.57;65.96;98950.06;8484175;27;20418;-69
2022/01/22 03:01:24;;;;;;;8.03;7.20;;;;;;;5.50;66.43;98946.69;8484256;27;20233;-69
2022/01/22 03:05:27;;;;;;;8.60;7.70;;;;;;;5.43;66.77;98945.06;8484064;28;20540;-69
2022/01/22 03:09:32;;;;;;;10.37;7.87;;;;;;;5.54;67.16;98947.53;8483896;28;20253;-69
2022/01/22 03:18:13;;;;;;;11.10;9.07;;;;;;;5.30;67.77;98959.72;8430675;28;20542;-69
2022/01/22 03:22:20;;;;;;;9.83;8.83;;;;;;;5.40;67.36;98955.34;8483977;28;20410;-69
2022/01/22 03:30:45;;;;;;;11.73;9.40;;;;;;;5.56;67.13;98959.50;8476661;27;20221;-69
2022/01/22 03:34:57;;;;;;;10.57;9.30;;;;;;;5.52;67.29;98959.53;8483646;27;20256;-69
2022/01/22 03:39:00;;;;;;;10.80;9.63;;;;;;;5.48;67.66;98945.84;8483290;28;20229;-69
2022/01/22 03:43:03;;;;;;;11.50;9.80;;;;;;;5.43;67.44;98963.03;8483387;28;20231;-69
2022/01/22 03:47:08;;;;;;;11.53;10.00;;;;;;;5.42;68.39;98971.59;8482901;28;20229;-69
2022/01/22 03:51:11;;;;;;;10.53;9.20;;;;;;;5.69;67.43;98960.25;8482926;28;20244;-69
2022/01/22 03:55:27;;;;;;;12.97;9.53;;;;;;;5.65;67.64;98969.72;8482603;27;20251;-69
2022/01/22 03:59:30;;;;;;;12.13;9.07;;;;;;;5.71;67.37;98952.53;8482976;28;20230;-69
2022/01/22 04:03:41;;;;;;;12.83;9.30;;;;;;;5.63;68.00;98953.44;8481845;28;20233;-69
2022/01/22 04:12:05;;;;;;;11.00;9.20;;;;;;;5.65;67.49;98951.72;8481934;28;20374;-69
2022/01/22 04:16:09;;;;;;;11.10;9.73;;;;;;;5.66;67.95;98960.28;8481604;27;20241;-69
2022/01/22 04:24:53;;;;;;;11.30;9.97;;;;;;;5.52;68.49;98960.41;8427991;28;20240;-69
2022/01/22 04:28:56;;;;;;;12.33;10.10;;;;;;;5.65;67.06;98964.59;8481469;27;20387;-69
2022/01/22 04:33:00;;;;;;;10.67;9.53;;;;;;;5.77;67.54;98955.91;8481301;28;20225;-69
2022/01/22 04:37:04;;;;;;;11.07;9.27;;;;;;;5.74;67.33;98955.91;8481184;28;20549;-69
2022/01/22 04:41:07;;;;;;;12.47;10.20;;;;;;;5.75;67.66;98952.50;8481364;28;20236;-69
2022/01/22 04:45:18;;;;;;;11.93;8.47;;;;;;;5.94;66.82;98952.31;8480972;27;20386;-69
2022/01/22 04:58:06;;;;;;;10.53;8.03;;;;;;;5.75;66.92;98938.78;8480738;28;20270;-69
2022/01/22 05:02:09;;;;;;;13.10;8.67;;;;;;;5.90;66.61;98956.63;8480366;28;20225;-69
2022/01/22 05:06:12;;;;;;;8.67;7.83;;;;;;;5.94;66.52;98955.75;8480550;28;20390;-69
2022/01/22 05:10:17;;;;;;;9.37;8.20;;;;;;;6.05;65.58;98963.38;8480295;28;20237;-69
2022/01/22 05:14:19;;;;;;;9.70;6.93;;;;;;;6.11;65.21;98963.31;8480353;28;20232;-69
2022/01/22 05:18:23;;;;;;;12.40;7.97;;;;;;;6.07;65.57;98972.78;8480209;28;20443;-69
2022/01/22 05:22:43;;;;;;;13.90;8.17;;;;;;;5.78;65.71;98977.31;8480678;28;20232;-69
2022/01/22 05:27:13;;;;;;;13.07;7.07;;;;;;;6.09;65.11;98980.47;8480388;28;20520;-69
2022/01/22 05:31:34;;;;;;;11.53;7.70;;;;;;;5.88;65.25;98982.38;8480228;28;20225;-69
2022/01/22 05:40:08;;;;;;;9.93;7.20;;;;;;;5.92;65.65;98985.75;8462457;28;20225;-69
2022/01/22 05:44:13;;;;;;;9.57;7.03;;;;;;;5.81;65.80;98979.88;8486862;28;20311;-69
2022/01/22 05:48:16;;;;;;;11.33;7.23;;;;;;;5.93;65.69;98981.47;8486869;28;20229;-69
2022/01/22 05:52:21;;;;;;;8.20;7.10;;;;;;;5.96;65.42;98990.03;8486288;28;20244;-69
2022/01/22 06:00:48;;;;;;;11.00;6.70;;;;;;;5.99;65.11;99004.56;8479711;28;20232;-69
2022/01/22 06:04:51;;;;;;;11.93;6.97;;;;;;;5.96;64.95;99015.75;8454144;28;20528;-69
2022/01/22 06:08:56;;;;;;;9.77;6.60;;;;;;;5.79;65.99;99005.59;8451498;28;20236;-69
2022/01/22 06:13:11;;;;;;;8.60;6.20;;;;;;;5.88;65.95;99022.63;8446530;28;20249;-69
2022/01/22 06:17:16;;;;;;;10.70;6.17;;;;;;;5.90;65.95;99020.91;8451142;28;20237;-69
2022/01/22 06:21:19;;;;;;;10.47;6.53;;;;;;;5.82;65.99;99020.97;8448586;28;20421;-71
2022/01/22 06:25:22;;;;;;;8.47;5.80;;;;;;;5.98;65.74;99024.31;8449133;28;20234;-69
2022/01/22 06:29:25;;;;;;;10.27;6.03;;;;;;;5.80;66.43;99032.97;8450362;28;20245;-69
2022/01/22 06:33:30;;;;;;;10.13;6.33;;;;;;;5.67;66.55;99034.81;8450513;28;20229;-69
2022/01/22 06:37:33;;;;;;;9.13;6.33;;;;;;;5.87;66.41;99042.34;8449956;28;20325;-69
2022/01/22 06:41:45;;;;;;;9.43;6.73;;;;;;;5.84;66.17;99042.34;8450026;28;20230;-70
2022/01/22 06:45:48;;;;;;;6.97;5.60;;;;;;;5.89;66.08;99042.34;8450453;28;20423;-69
2022/01/22 06:49:53;;;;;;;9.63;6.33;;;;;;;5.83;66.28;99039.81;8426262;28;20568;-69
2022/01/22 06:53:56;;;;;;;8.37;5.87;;;;;;;5.76;66.50;99039.00;8449842;28;20222;-69
2022/01/22 06:57:59;;;;;;;10.03;6.03;;;;;;;5.98;65.35;99039.72;8447277;28;20525;-69
2022/01/22 07:02:02;;;;;;;8.57;5.97;;;;;;;6.09;65.50;99054.19;8450786;28;20249;-69
2022/01/22 07:06:07;;;;;;;6.93;5.13;;;;;;;5.83;66.28;99060.41;8449373;28;20246;-69
2022/01/22 07:10:10;;;;;;;7.97;5.50;;;;;;;5.79;66.44;99062.13;8449281;28;20419;-69
2022/01/22 07:14:13;;;;;;;7.00;4.70;;;;;;;6.01;65.44;99059.41;8448753;28;20230;-69
2022/01/22 07:18:16;;;;;;;8.77;4.93;;;;;;;5.90;65.77;99058.63;8448893;28;20229;-69
2022/01/22 07:22:35;;;;;;;6.17;4.80;;;;;;;6.09;65.20;99057.63;8446634;28;20230;-69
2022/01/22 07:26:38;;;;;;;8.70;5.50;;;;;;;5.92;65.70;99069.72;8445984;28;20222;-69
2022/01/22 07:30:41;;;;;;;6.57;4.83;;;;;;;5.97;65.47;99074.00;8448900;28;20552;-69
2022/01/22 07:34:44;;;;;;;6.40;5.50;;;;;;;6.05;65.00;99081.66;8449101;28;20489;-69
2022/01/22 07:38:49;;;;;;;7.37;5.50;;;;;;;6.14;65.07;99084.16;8448488;28;20222;-69
2022/01/22 07:42:52;;;;;;;7.47;5.50;;;;;;;5.92;66.08;99087.72;8448940;28;20241;-70
2022/01/22 07:46:55;;;;;;;7.10;5.70;;;;;;;6.00;65.45;99091.16;8449238;28;20299;-69
2022/01/22 07:50:58;;;;;;;7.43;5.97;;;;;;;6.04;65.26;99091.09;8448580;28;20230;-69
2022/01/22 07:55:03;;;;;;;7.60;6.63;;;;;;;5.94;65.82;99096.28;8448633;28;20234;-69
2022/01/22 07:59:06;;;;;;;12.10;6.87;;;;;;;6.18;64.97;99101.25;8448357;28;20226;-69
2022/01/22 08:03:09;;;;;;;9.30;7.03;;;;;;;6.17;65.35;99098.69;8465828;28;20577;-70
2022/01/22 08:07:13;;;;;;;8.13;6.70;;;;;;;6.18;65.31;99098.69;8482444;28;20235;-69
2022/01/22 08:11:17;;;;;;;7.50;6.50;;;;;;;6.10;65.67;99107.34;8482097;27;20236;-69
2022/01/22 08:15:21;;;;;;;9.60;6.63;;;;;;;6.15;65.55;99116.75;8482308;28;20229;-69
2022/01/22 08:19:24;;;;;;;11.13;6.80;;;;;;;6.23;65.47;99109.81;8482431;28;20236;-69
2022/01/22 08:23:28;;;;;;;7.40;6.70;;;;;;;5.97;66.13;99114.31;8482222;27;20256;-69
2022/01/22 08:27:40;;;;;;;8.60;7.03;;;;;;;6.24;65.94;99113.22;8481425;28;20228;-69
2022/01/22 08:31:51;;;;;;;9.07;7.00;;;;;;;6.43;65.28;99103.63;8481806;28;20431;-69
2022/01/22 08:35:54;;;;;;;7.43;6.50;;;;;;;6.42;65.75;99117.38;8481809;28;20234;-69
2022/01/22 08:39:57;;;;;;;10.70;7.30;;;;;;;6.28;65.68;99130.34;8481860;28;20226;-69
2022/01/22 08:44:02;;;;;;;8.27;7.13;;;;;;;6.30;66.10;99138.91;8481367;28;20231;-69
2022/01/22 08:48:06;;;;;;;8.40;6.33;;;;;;;6.51;65.04;99135.31;8481110;27;20229;-69
2022/01/22 08:52:13;;;;;;;8.60;7.30;;;;;;;6.45;65.62;99140.47;8480917;28;20535;-69
2022/01/22 08:56:16;;;;;;;7.90;7.03;;;;;;;6.21;66.85;99152.69;8480761;28;20237;-69
2022/01/22 09:00:22;;;;;;;10.00;6.83;;;;;;;6.50;64.87;99151.59;8452287;28;20234;-72
2022/01/22 09:04:25;;;;;;;7.17;6.47;;;;;;;6.28;65.86;99152.66;8474411;28;20229;-69
2022/01/22 09:08:28;;;;;;;8.80;7.23;;;;;;;6.24;66.29;99159.53;8480595;28;20229;-69
2022/01/22 09:12:31;;;;;;;8.27;6.97;;;;;;;6.54;65.78;99160.16;8479306;28;20423;-70
2022/01/22 09:16:37;;;;;;;8.67;7.57;;;;;;;6.28;66.36;99168.94;8480484;28;20237;-70
2022/01/22 09:20:55;;;;;;;8.27;7.07;;;;;;;6.45;65.95;99179.97;8480279;28;20374;-69
2022/01/22 09:24:58;;;;;;;9.87;8.10;;;;;;;6.39;66.13;99177.41;8441325;28;20222;-69
2022/01/22 09:29:01;;;;;;;8.07;6.90;;;;;;;6.54;65.83;99170.44;8445731;28;20226;-70
2022/01/22 09:33:06;;;;;;;7.93;6.73;;;;;;;6.72;64.68;99193.47;8445682;28;20230;-69
2022/01/22 09:37:10;;;;;;;7.87;7.07;;;;;;;6.62;65.40;99181.53;8444841;28;20236;-69
2022/01/22 09:41:14;;;;;;;8.63;7.73;;;;;;;6.59;65.53;99184.13;8445461;28;20435;-70
2022/01/22 09:45:18;;;;;;;7.63;6.70;;;;;;;6.81;65.18;99188.19;8444954;28;20544;-71
2022/01/22 09:49:24;;;;;;;7.60;6.80;;;;;;;6.83;65.19;99188.19;8444520;28;20236;-70
2022/01/22 09:53:27;;;;;;;10.03;7.60;;;;;;;6.76;65.13;99197.72;8444970;28;20226;-69
2022/01/22 09:57:33;;;;;;;7.57;6.87;;;;;;;6.64;65.66;99203.81;8445748;28;20529;-68
2022/01/22 10:01:36;;;;;;;7.50;6.47;;;;;;;6.68;65.37;99214.06;8449460;28;20225;-69
2022/01/22 10:05:41;;;;;;;9.33;6.53;;;;;;;6.41;65.12;99221.16;8479190;28;20242;-68
2022/01/22 10:09:56;;;;;;;6.97;6.27;;;;;;;6.78;64.79;99213.16;8479576;28;20244;-68
2022/01/22 10:13:59;;;;;;;7.20;6.53;;;;;;;6.70;65.33;99209.75;8479529;28;20230;-68
2022/01/22 10:18:03;;;;;;;7.60;5.87;;;;;;;6.73;64.75;99212.31;8479091;28;20229;-68
2022/01/22 10:22:08;;;;;;;6.73;5.50;;;;;;;6.83;65.38;99217.38;8479448;28;20415;-68
2022/01/22 10:26:14;;;;;;;6.50;5.90;;;;;;;6.54;65.32;99221.91;8485299;28;20232;-68
2022/01/22 10:30:19;;;;;;;6.63;5.53;;;;;;;6.82;65.17;99223.38;8485149;27;20229;-68
2022/01/22 10:34:22;;;;;;;5.90;5.30;;;;;;;6.79;65.42;99227.72;8485105;28;20228;-68
2022/01/22 10:38:27;;;;;;;8.07;5.60;;;;;;;6.92;64.69;99218.16;8484964;28;20407;-68
2022/01/22 10:42:31;;;;;;;6.70;5.23;;;;;;;6.75;65.44;99213.16;8485171;28;20232;-68
2022/01/22 10:46:44;;;;;;;6.77;5.40;;;;;;;6.93;64.68;99215.56;8484496;27;20642;-68
2022/01/22 10:51:00;;;;;;;6.47;5.87;;;;;;;6.87;64.69;99200.16;8484829;28;20241;-68
2022/01/22 10:55:05;;;;;;;6.43;5.63;;;;;;;6.85;64.69;99209.63;8484392;28;20309;-68
2022/01/22 10:59:09;;;;;;;6.43;5.73;;;;;;;6.85;65.20;99201.91;8484211;27;20229;-69
2022/01/22 11:03:20;;;;;;;6.80;6.20;;;;;;;6.96;65.37;99199.22;8484067;28;20225;-68
2022/01/22 11:07:23;;;;;;;6.47;5.80;;;;;;;6.96;65.20;99191.50;8483693;28;20229;-68
2022/01/22 11:11:38;;;;;;;7.27;6.10;;;;;;;6.96;65.38;99194.06;8483745;27;20221;-69
2022/01/22 11:15:42;;;;;;;7.30;6.37;;;;;;;6.99;65.79;99191.47;8482924;27;20229;-68
2022/01/22 11:19:47;;;;;;;5.83;5.23;;;;;;;7.04;65.31;99192.25;8483443;27;20233;-68
2022/01/22 11:23:50;;;;;;;6.57;5.83;;;;;;;7.14;65.23;99201.63;8483472;28;20401;-68
2022/01/22 11:27:58;;;;;;;6.80;5.83;;;;;;;7.08;65.53;99205.97;8483405;27;20228;-69
2022/01/22 11:32:04;;;;;;;7.57;6.37;;;;;;;7.03;65.11;99203.44;8483364;28;20225;-68
2022/01/22 11:36:12;;;;;;;5.53;4.70;;;;;;;7.04;65.56;99194.84;8482296;28;20236;-68
2022/01/22 11:40:17;;;;;;;7.17;5.33;;;;;;;7.09;65.59;99202.53;8483472;28;20516;-68
2022/01/22 11:44:27;;;;;;;6.10;5.37;;;;;;;7.28;64.85;99208.34;8482982;28;20346;-68
2022/01/22 11:48:31;;;;;;;7.13;5.90;;;;;;;6.87;66.20;99207.03;8482863;27;20545;-69
2022/01/22 11:52:37;;;;;;;6.87;6.17;;;;;;;7.07;65.36;99199.13;8482221;28;20507;-69
2022/01/22 11:56:48;;;;;;;8.00;5.77;;;;;;;7.10;65.11;99207.69;8482295;28;20306;-69
2022/01/22 12:00:53;;;;;;;12.70;8.33;;;;;;;7.29;64.91;99212.63;8482411;28;20420;-69
2022/01/22 12:05:06;;;;;;;8.90;5.87;;;;;;;9.71;76.83;99215.69;8470460;27;20293;-71
2022/01/22 12:09:13;;;;;;;10.87;5.67;;;;;;;10.10;65.22;99214.84;8448337;28;20256;-72
2022/01/22 12:18:09;;;;;;;11.13;6.00;;;;;;;9.96;60.60;99209.97;8441701;28;20534;-71
2022/01/22 12:22:30;;;;;;;8.77;7.87;;;;;;;8.71;59.74;99209.78;8448504;28;20233;-71
2022/01/22 12:26:53;;;;;;;11.90;8.70;;;;;;;8.46;60.61;99219.69;8447452;28;20252;-71
2022/01/22 12:31:02;;;;;;;8.03;7.10;;;;;;;8.19;61.62;99216.63;8447909;28;20229;-71
2022/01/22 12:35:10;;;;;;;11.73;9.53;;;;;;;7.77;63.09;99210.34;8447688;28;20226;-71
2022/01/22 12:39:18;;;;;;;10.90;9.57;;;;;;;7.84;63.65;99219.66;8447464;28;20249;-71
2022/01/22 12:43:28;;;;;;;9.70;8.73;;;;;;;7.80;63.31;99226.59;8444978;28;20226;-71
2022/01/22 12:47:31;;;;;;;10.33;9.20;;;;;;;7.66;63.88;99232.81;8445480;28;20230;-72
2022/01/22 12:51:36;;;;;;;8.80;8.00;;;;;;;7.50;64.35;99225.28;8446453;28;20534;-72
2022/01/22 13:00:15;;;;;;;10.93;9.80;;;;;;;7.37;65.00;99213.41;8446520;28;20222;-71
2022/01/22 13:04:21;;;;;;;10.70;7.87;;;;;;;7.56;65.03;99214.03;8449055;28;20230;-71
2022/01/22 13:08:28;;;;;;;13.37;11.17;;;;;;;7.52;64.77;99205.50;8447397;28;20230;-71
2022/01/22 13:12:31;;;;;;;9.73;8.83;;;;;;;7.29;65.80;99204.88;8446891;28;20328;-71
2022/01/22 13:16:34;;;;;;;10.67;9.57;;;;;;;7.47;65.90;99204.69;8446953;28;20533;-72
2022/01/22 13:20:38;;;;;;;10.97;9.87;;;;;;;7.57;65.43;99198.53;8446981;28;20296;-71
2022/01/22 13:24:43;;;;;;;10.80;9.50;;;;;;;7.41;65.63;99205.59;8446580;28;20241;-71
2022/01/22 13:28:46;;;;;;;10.33;9.30;;;;;;;7.62;65.26;99203.66;8446576;28;20241;-71
2022/01/22 13:32:53;;;;;;;9.70;8.90;;;;;;;7.44;66.36;99200.44;8446094;28;20230;-71
2022/01/22 13:37:29;;;;;;;10.77;9.67;;;;;;;7.51;65.69;99210.66;8445410;28;20283;-71
2022/01/22 13:50:12;;;;;;;10.60;9.60;;;;;;;7.26;66.26;99222.97;8445110;28;20238;-71
2022/01/22 13:54:15;;;;;;;10.43;9.50;;;;;;;7.18;67.08;99223.91;8442889;28;20222;-71
2022/01/22 13:58:23;;;;;;;10.13;9.13;;;;;;;7.31;66.63;99227.22;8448493;28;20226;-71
2022/01/22 14:02:38;;;;;;;13.33;11.93;;;;;;;7.37;66.49;99232.28;8452627;28;20402;-71
2022/01/22 14:06:43;;;;;;;11.13;10.13;;;;;;;7.39;65.80;99230.53;8449362;28;20222;-71
2022/01/22 14:10:46;;;;;;;10.70;9.60;;;;;;;7.42;65.87;99230.53;8451516;28;20214;-71
2022/01/22 14:15:06;;;;;;;10.37;9.37;;;;;;;7.29;66.08;99228.94;8451284;28;20218;-71
2022/01/22 14:19:12;;;;;;;9.90;9.00;;;;;;;7.37;66.06;99240.03;8450838;28;20237;-71
2022/01/22 14:23:16;;;;;;;10.23;9.33;;;;;;;7.33;66.66;99234.91;8450684;28;20245;-71
2022/01/22 14:27:20;;;;;;;10.13;9.20;;;;;;;7.41;65.98;99236.53;8450542;28;20313;-71
2022/01/22 14:31:30;;;;;;;10.50;9.60;;;;;;;7.56;65.74;99242.41;8450616;28;20424;-71
2022/01/22 14:35:33;;;;;;;10.03;9.13;;;;;;;7.57;65.52;99239.78;8450263;28;20293;-71
2022/01/22 14:44:19;;;;;;;11.10;10.00;;;;;;;7.68;64.89;99238.81;8447676;28;20242;-71
2022/01/22 14:48:25;;;;;;;11.90;10.70;;;;;;;7.51;65.65;99244.16;8448762;28;20226;-71
2022/01/22 14:52:28;;;;;;;9.97;8.80;;;;;;;7.56;65.49;99240.66;8449936;28;20567;-71
2022/01/22 14:56:31;;;;;;;10.10;9.23;;;;;;;7.39;66.29;99242.59;8449799;28;20218;-72
2022/01/22 15:00:34;;;;;;;10.73;9.77;;;;;;;7.53;65.46;99245.84;8446867;28;20238;-71
2022/01/22 15:04:39;;;;;;;10.07;9.17;;;;;;;7.56;65.66;99238.09;8450640;28;20261;-71
2022/01/22 15:08:42;;;;;;;11.20;10.17;;;;;;;7.23;66.08;99247.03;8449120;28;20234;-71
2022/01/22 15:12:46;;;;;;;10.13;9.23;;;;;;;7.31;66.47;99250.41;8449834;28;20237;-71
2022/01/22 15:21:33;;;;;;;11.57;10.47;;;;;;;7.48;65.47;99269.97;8438580;28;20416;-71
2022/01/22 15:25:36;;;;;;;10.03;9.20;;;;;;;7.43;65.87;99270.03;8449656;28;20234;-71
2022/01/22 15:29:52;;;;;;;10.00;9.10;;;;;;;7.55;65.63;99277.63;8449543;28;20245;-71
2022/01/22 15:34:09;;;;;;;9.80;8.93;;;;;;;7.53;65.48;99287.09;8447174;28;20590;-71
2022/01/22 15:38:13;;;;;;;10.90;9.90;;;;;;;7.59;65.19;99287.00;8446442;28;20253;-71
2022/01/22 15:42:17;;;;;;;12.37;11.17;;;;;;;7.44;65.52;99289.75;8449408;28;20412;-71
2022/01/22 15:46:20;;;;;;;12.27;11.00;;;;;;;7.60;64.81;99288.72;8448811;28;20399;-71
2022/01/22 15:50:24;;;;;;;14.50;13.07;;;;;;;7.39;65.77;99304.44;8449161;28;20250;-71
2022/01/22 15:54:48;;;;;;;18.90;16.67;;;;;;;7.61;65.23;99303.31;8448875;28;20577;-72
2022/01/22 15:58:50;;;;;;;11.23;10.13;;;;;;;7.53;65.73;99304.28;8448772;28;20241;-71
2022/01/22 16:02:57;;;;;;;11.70;10.50;;;;;;;7.66;64.97;99307.59;8463694;28;20236;-71
2022/01/22 16:07:06;;;;;;;12.63;11.47;;;;;;;7.74;66.11;99311.78;8482516;27;20233;-71
2022/01/22 16:11:10;;;;;;;10.93;10.00;;;;;;;7.69;65.37;99318.72;8482226;28;20229;-72
2022/01/22 16:15:33;;;;;;;12.70;11.50;;;;;;;7.70;64.93;99319.59;8481524;28;20221;-72
2022/01/22 16:19:37;;;;;;;12.00;10.80;;;;;;;7.54;65.23;99321.44;8480840;27;20239;-71
2022/01/22 16:23:41;;;;;;;12.50;11.30;;;;;;;7.67;64.80;99320.44;8461559;28;20241;-71
2022/01/22 16:27:45;;;;;;;11.80;10.60;;;;;;;7.50;65.21;99336.13;8448008;28;20238;-70
2022/01/22 16:31:48;;;;;;;12.47;10.70;;;;;;;7.50;65.18;99336.13;8446936;28;20248;-71
2022/01/22 16:35:52;;;;;;;11.60;10.50;;;;;;;7.64;64.92;99339.38;8447745;28;20559;-71
2022/01/22 16:39:56;;;;;;;11.97;10.83;;;;;;;7.73;64.85;99335.00;8446962;28;20233;-71
2022/01/22 16:44:12;;;;;;;11.90;10.80;;;;;;;7.56;65.13;99337.78;8447478;28;20245;-71
2022/01/22 16:53:15;;;;;;;12.07;10.87;;;;;;;7.81;64.16;99333.22;8446549;28;20230;-71
2022/01/22 16:57:14;;;;;;;11.30;10.20;;;;;;;7.78;64.55;99348.69;8446879;28;20533;-71
2022/01/22 17:01:28;;;;;;;11.10;10.10;;;;;;;7.69;64.55;99348.78;8445332;28;20237;-71
2022/01/22 17:05:33;;;;;;;12.60;11.40;;;;;;;7.62;64.89;99360.91;8446016;28;20233;-71
2022/01/22 17:14:12;;;;;;;12.70;11.50;;;;;;;7.57;64.95;99360.94;8446580;28;20230;-71
2022/01/22 17:18:17;;;;;;;12.27;11.13;;;;;;;7.47;64.94;99367.06;8437949;28;20236;-71
2022/01/22 17:22:20;;;;;;;11.50;10.33;;;;;;;7.37;65.34;99366.31;8446637;28;20237;-70
2022/01/22 17:26:23;;;;;;;11.50;10.40;;;;;;;7.71;64.49;99365.97;8446604;28;20300;-70
2022/01/22 17:30:26;;;;;;;12.23;11.03;;;;;;;7.56;64.50;99371.28;8445816;28;20237;-69
2022/01/22 17:34:30;;;;;;;10.93;9.93;;;;;;;7.70;64.23;99366.84;8452117;28;20320;-71
2022/01/22 17:38:33;;;;;;;11.53;10.43;;;;;;;7.62;64.33;99372.06;8452778;28;20230;-69
2022/01/22 17:42:37;;;;;;;11.60;10.43;;;;;;;7.61;64.11;99374.66;8453341;28;20237;-69
2022/01/22 17:46:40;;;;;;;14.10;12.60;;;;;;;7.60;64.05;99381.56;8452911;28;20234;-69
2022/01/22 17:50:45;;;;;;;17.60;15.47;;;;;;;7.76;63.80;99383.97;8453398;28;20245;-69
2022/01/22 17:54:48;;;;;;;14.50;13.00;;;;;;;7.63;63.74;99381.53;8453057;28;20233;-70
2022/01/22 17:58:51;;;;;;;11.97;10.77;;;;;;;7.70;64.02;99390.03;8452810;28;20279;-69
2022/01/22 18:02:54;;;;;;;12.53;11.30;;;;;;;7.78;63.81;99397.69;8467225;28;20225;-69
2022/01/22 18:06:59;;;;;;;13.50;12.20;;;;;;;7.76;63.76;99386.56;8472811;28;20275;-69
2022/01/22 18:11:07;;;;;;;11.23;10.13;;;;;;;7.76;63.59;99378.81;8452078;28;20423;-69
2022/01/22 18:15:11;;;;;;;11.20;10.07;;;;;;;7.67;63.92;99387.47;8452182;28;20496;-69
2022/01/22 18:19:14;;;;;;;11.27;10.10;;;;;;;7.76;63.76;99381.41;8451603;28;20401;-68
2022/01/22 18:23:19;;;;;;;10.73;9.73;;;;;;;7.83;63.30;99383.88;8451373;28;20230;-68
2022/01/22 18:27:22;;;;;;;11.83;10.57;;;;;;;7.79;63.45;99371.91;8451782;28;20230;-69
2022/01/22 18:31:25;;;;;;;12.63;11.33;;;;;;;7.81;63.33;99375.31;8451843;28;20234;-69
2022/01/22 18:35:28;;;;;;;10.97;9.97;;;;;;;7.76;63.34;99378.81;8451442;28;20232;-69
2022/01/22 18:39:33;;;;;;;12.00;10.70;;;;;;;7.86;63.33;99388.16;8450783;28;20234;-69
2022/01/22 18:43:38;;;;;;;11.70;10.50;;;;;;;7.80;63.32;99380.50;8449815;28;20225;-69
2022/01/22 18:47:41;;;;;;;12.43;11.03;;;;;;;7.82;62.98;99384.78;8450881;28;20283;-69
2022/01/22 18:51:45;;;;;;;14.53;12.13;;;;;;;7.89;62.53;99390.72;8450718;28;20244;-69
2022/01/22 18:55:49;;;;;;;13.90;12.50;;;;;;;7.81;62.84;99385.63;8450972;28;20226;-69
2022/01/22 18:59:52;;;;;;;11.90;10.67;;;;;;;7.76;62.80;99386.56;8450734;28;20236;-69
2022/01/22 19:03:56;;;;;;;11.97;10.77;;;;;;;7.84;62.89;99395.06;8473921;28;21213;-69
2022/01/22 19:07:59;;;;;;;13.50;11.90;;;;;;;7.97;62.57;99396.63;8484039;28;20229;-69
2022/01/22 19:12:04;;;;;;;15.73;13.33;;;;;;;7.86;62.95;99395.88;8484327;28;20225;-68
2022/01/22 19:16:07;;;;;;;12.17;10.97;;;;;;;7.95;62.26;99397.53;8484322;28;20233;-69
2022/01/22 19:20:16;;;;;;;11.83;10.60;;;;;;;7.92;62.58;99403.59;8484096;28;20225;-71
2022/01/22 19:24:24;;;;;;;12.03;10.83;;;;;;;7.87;63.11;99405.34;8456683;28;20230;-69
2022/01/22 19:28:28;;;;;;;19.40;17.33;;;;;;;7.68;62.89;99404.69;8449217;28;20225;-69
2022/01/22 19:32:31;;;;;;;14.17;12.77;;;;;;;7.83;63.14;99409.69;8440098;28;20222;-69
2022/01/22 19:36:35;;;;;;;14.90;13.40;;;;;;;7.85;62.60;99403.66;8448477;28;20226;-70
2022/01/22 19:40:39;;;;;;;15.40;13.53;;;;;;;7.99;62.38;99412.94;8448455;28;20332;-70
2022/01/22 19:44:53;;;;;;;15.27;13.67;;;;;;;7.81;62.82;99413.16;8448197;28;20234;-69
2022/01/22 19:48:57;;;;;;;15.77;14.17;;;;;;;7.93;62.52;99418.19;8448541;28;20541;-69
2022/01/22 19:53:03;;;;;;;14.50;13.00;;;;;;;7.93;62.36;99420.75;8447212;28;20312;-69
2022/01/22 19:57:06;;;;;;;15.87;14.37;;;;;;;7.99;62.02;99414.69;8447576;28;20230;-69
2022/01/22 20:01:11;;;;;;;15.93;14.33;;;;;;;8.01;62.18;99416.41;8447608;28;20226;-69
2022/01/22 20:05:14;;;;;;;16.37;14.67;;;;;;;8.07;61.86;99419.75;8448424;28;20230;-69
2022/01/22 20:09:17;;;;;;;16.70;15.00;;;;;;;8.12;61.94;99411.09;8448588;28;20230;-69
2022/01/22 20:13:22;;;;;;;15.47;13.73;;;;;;;7.93;61.86;99415.59;8448759;28;20238;-69
2022/01/22 20:17:26;;;;;;;14.87;13.43;;;;;;;8.06;61.58;99405.16;8448217;28;20226;-69
2022/01/22 20:21:30;;;;;;;16.80;15.03;;;;;;;7.93;62.08;99420.75;8448199;28;20230;-69
2022/01/22 20:25:53;;;;;;;15.63;14.13;;;;;;;7.96;61.91;99425.06;8447725;28;20226;-69
2022/01/22 20:29:56;;;;;;;23.97;14.00;;;;;;;10.52;75.15;99414.19;8447576;28;20285;-67
2022/01/22 20:34:00;;;;;;;13.63;12.20;;;;;;;10.34;58.74;99410.25;8447816;28;20232;-68
2022/01/22 20:38:03;;;;;;;13.43;12.10;;;;;;;10.00;58.22;99408.31;8447491;28;20435;-69
2022/01/22 20:42:07;;;;;;;14.20;12.90;;;;;;;9.15;59.09;99411.47;8447438;28;20230;-70
2022/01/22 20:46:34;;;;;;;15.37;13.93;;;;;;;8.59;59.83;99426.94;8447186;28;20218;-74
2022/01/22 20:50:42;;;;;;;14.97;13.50;;;;;;;8.51;60.68;99427.03;8435833;28;20518;-70
2022/01/22 20:54:45;;;;;;;16.83;15.23;;;;;;;8.44;60.94;99425.38;8447171;28;20279;-69